sensor_id;sensor_type;location;lat;lon;timestamp;P1;durP1;ratioP1;P2;durP2;ratioP2
69906;SDS011;57190;47.918;8.112;2024-02-21T00:00:34;5.13;;;1.77;;
69906;SDS011;57190;47.918;8.112;2024-02-21T00:02:59;4.80;;;1.87;;
69906;SDS011;57190;47.918;8.112;2024-02-21T00:05:27;1.77;;;1.60;;
69906;SDS011;57190;47.918;8.112;2024-02-21T00:07:52;3.37;;;1.80;;
69906;SDS011;57190;47.918;8.112;2024-02-21T00:10:18;4.27;;;1.80;;
69906;SDS011;57190;47.918;8.112;2024-02-21T00:12:43;4.00;;;1.77;;
69906;SDS011;57190;47.918;8.112;2024-02-21T00:15:09;3.80;;;1.73;;
69906;SDS011;57190;47.918;8.112;2024-02-21T00:17:34;2.07;;;1.67;;
69906;SDS011;57190;47.918;8.112;2024-02-21T00:20:00;3.37;;;1.73;;
69906;SDS011;57190;47.918;8.112;2024-02-21T00:22:25;3.10;;;1.67;;
69906;SDS011;57190;47.918;8.112;2024-02-21T00:24:54;1.83;;;1.10;;
69906;SDS011;57190;47.918;8.112;2024-02-21T00:27:19;2.60;;;1.80;;
69906;SDS011;57190;47.918;8.112;2024-02-21T00:29:45;3.97;;;2.00;;
69906;SDS011;57190;47.918;8.112;2024-02-21T00:32:10;2.60;;;1.80;;
69906;SDS011;57190;47.918;8.112;2024-02-21T00:34:36;1.83;;;1.53;;
69906;SDS011;57190;47.918;8.112;2024-02-21T00:37:01;4.73;;;1.40;;
69906;SDS011;57190;47.918;8.112;2024-02-21T00:39:27;2.03;;;1.53;;
69906;SDS011;57190;47.918;8.112;2024-02-21T00:41:52;2.23;;;1.53;;
69906;SDS011;57190;47.918;8.112;2024-02-21T00:44:18;4.10;;;1.97;;
69906;SDS011;57190;47.918;8.112;2024-02-21T00:46:43;3.93;;;1.63;;
69906;SDS011;57190;47.918;8.112;2024-02-21T00:49:09;3.57;;;1.77;;
69906;SDS011;57190;47.918;8.112;2024-02-21T00:51:34;3.47;;;1.53;;
69906;SDS011;57190;47.918;8.112;2024-02-21T00:54:00;2.57;;;1.47;;
69906;SDS011;57190;47.918;8.112;2024-02-21T00:56:26;3.00;;;1.27;;
69906;SDS011;57190;47.918;8.112;2024-02-21T00:58:52;1.67;;;1.17;;
69906;SDS011;57190;47.918;8.112;2024-02-21T01:01:21;2.13;;;1.60;;
69906;SDS011;57190;47.918;8.112;2024-02-21T01:03:47;3.53;;;1.30;;
69906;SDS011;57190;47.918;8.112;2024-02-21T01:06:13;1.63;;;1.20;;
69906;SDS011;57190;47.918;8.112;2024-02-21T01:08:38;1.77;;;1.40;;
69906;SDS011;57190;47.918;8.112;2024-02-21T01:11:04;2.47;;;1.53;;
69906;SDS011;57190;47.918;8.112;2024-02-21T01:13:29;3.70;;;1.40;;
69906;SDS011;57190;47.918;8.112;2024-02-21T01:15:55;1.93;;;1.20;;
69906;SDS011;57190;47.918;8.112;2024-02-21T01:18:20;2.03;;;1.30;;
69906;SDS011;57190;47.918;8.112;2024-02-21T01:20:45;2.90;;;1.60;;
69906;SDS011;57190;47.918;8.112;2024-02-21T01:23:11;4.67;;;1.77;;
69906;SDS011;57190;47.918;8.112;2024-02-21T01:25:36;4.77;;;1.90;;
69906;SDS011;57190;47.918;8.112;2024-02-21T01:28:02;3.13;;;1.80;;
69906;SDS011;57190;47.918;8.112;2024-02-21T01:30:28;3.47;;;1.50;;
69906;SDS011;57190;47.918;8.112;2024-02-21T01:32:53;1.70;;;1.60;;
69906;SDS011;57190;47.918;8.112;2024-02-21T01:35:19;4.00;;;1.40;;
69906;SDS011;57190;47.918;8.112;2024-02-21T01:37:44;2.83;;;1.60;;
69906;SDS011;57190;47.918;8.112;2024-02-21T01:40:10;3.30;;;1.60;;
69906;SDS011;57190;47.918;8.112;2024-02-21T01:42:39;2.20;;;1.50;;
69906;SDS011;57190;47.918;8.112;2024-02-21T01:45:06;2.70;;;1.70;;
69906;SDS011;57190;47.918;8.112;2024-02-21T01:47:31;3.07;;;1.73;;
69906;SDS011;57190;47.918;8.112;2024-02-21T01:49:57;2.67;;;1.40;;
69906;SDS011;57190;47.918;8.112;2024-02-21T01:52:22;2.47;;;1.33;;
69906;SDS011;57190;47.918;8.112;2024-02-21T01:54:48;3.37;;;1.53;;
69906;SDS011;57190;47.918;8.112;2024-02-21T01:57:14;3.43;;;1.77;;
69906;SDS011;57190;47.918;8.112;2024-02-21T01:59:40;3.50;;;1.50;;
69906;SDS011;57190;47.918;8.112;2024-02-21T02:02:06;3.23;;;2.10;;
69906;SDS011;57190;47.918;8.112;2024-02-21T02:04:31;2.17;;;1.50;;
69906;SDS011;57190;47.918;8.112;2024-02-21T02:06:57;2.83;;;1.87;;
69906;SDS011;57190;47.918;8.112;2024-02-21T02:09:27;3.07;;;1.40;;
69906;SDS011;57190;47.918;8.112;2024-02-21T02:11:53;4.57;;;1.70;;
69906;SDS011;57190;47.918;8.112;2024-02-21T02:14:18;4.47;;;1.83;;
69906;SDS011;57190;47.918;8.112;2024-02-21T02:16:47;3.67;;;1.30;;
69906;SDS011;57190;47.918;8.112;2024-02-21T02:19:13;4.13;;;1.77;;
69906;SDS011;57190;47.918;8.112;2024-02-21T02:21:39;3.23;;;1.43;;
69906;SDS011;57190;47.918;8.112;2024-02-21T02:24:09;2.73;;;1.20;;
69906;SDS011;57190;47.918;8.112;2024-02-21T02:26:35;2.97;;;1.50;;
69906;SDS011;57190;47.918;8.112;2024-02-21T02:29:03;2.17;;;1.60;;
69906;SDS011;57190;47.918;8.112;2024-02-21T02:31:28;2.40;;;1.57;;
69906;SDS011;57190;47.918;8.112;2024-02-21T02:33:54;2.37;;;1.60;;
69906;SDS011;57190;47.918;8.112;2024-02-21T02:36:19;1.63;;;1.53;;
69906;SDS011;57190;47.918;8.112;2024-02-21T02:38:48;4.07;;;1.90;;
69906;SDS011;57190;47.918;8.112;2024-02-21T02:41:13;3.20;;;2.20;;
69906;SDS011;57190;47.918;8.112;2024-02-21T02:43:39;2.40;;;1.60;;
69906;SDS011;57190;47.918;8.112;2024-02-21T02:46:04;2.33;;;1.33;;
69906;SDS011;57190;47.918;8.112;2024-02-21T02:48:30;3.27;;;1.90;;
69906;SDS011;57190;47.918;8.112;2024-02-21T02:50:55;2.67;;;1.93;;
69906;SDS011;57190;47.918;8.112;2024-02-21T02:53:20;3.40;;;1.60;;
69906;SDS011;57190;47.918;8.112;2024-02-21T02:55:46;3.37;;;1.50;;
69906;SDS011;57190;47.918;8.112;2024-02-21T02:58:11;3.13;;;1.63;;
69906;SDS011;57190;47.918;8.112;2024-02-21T03:00:37;3.33;;;1.47;;
69906;SDS011;57190;47.918;8.112;2024-02-21T03:03:04;2.37;;;1.43;;
69906;SDS011;57190;47.918;8.112;2024-02-21T03:05:29;2.17;;;1.57;;
69906;SDS011;57190;47.918;8.112;2024-02-21T03:07:55;1.60;;;1.07;;
69906;SDS011;57190;47.918;8.112;2024-02-21T03:10:20;2.47;;;1.40;;
69906;SDS011;57190;47.918;8.112;2024-02-21T03:12:46;2.73;;;1.47;;
69906;SDS011;57190;47.918;8.112;2024-02-21T03:15:12;2.13;;;1.80;;
69906;SDS011;57190;47.918;8.112;2024-02-21T03:17:38;2.87;;;1.30;;
69906;SDS011;57190;47.918;8.112;2024-02-21T03:20:04;2.50;;;1.10;;
69906;SDS011;57190;47.918;8.112;2024-02-21T03:22:31;3.57;;;1.33;;
69906;SDS011;57190;47.918;8.112;2024-02-21T03:24:57;1.87;;;1.27;;
69906;SDS011;57190;47.918;8.112;2024-02-21T03:27:23;3.23;;;1.43;;
69906;SDS011;57190;47.918;8.112;2024-02-21T03:29:48;2.87;;;1.27;;
69906;SDS011;57190;47.918;8.112;2024-02-21T03:32:14;2.10;;;1.40;;
69906;SDS011;57190;47.918;8.112;2024-02-21T03:34:39;1.47;;;1.30;;
69906;SDS011;57190;47.918;8.112;2024-02-21T03:37:05;1.60;;;1.50;;
69906;SDS011;57190;47.918;8.112;2024-02-21T03:39:31;2.57;;;1.50;;
69906;SDS011;57190;47.918;8.112;2024-02-21T03:41:57;4.00;;;2.00;;
69906;SDS011;57190;47.918;8.112;2024-02-21T03:44:23;1.53;;;1.30;;
69906;SDS011;57190;47.918;8.112;2024-02-21T03:46:48;1.33;;;1.23;;
69906;SDS011;57190;47.918;8.112;2024-02-21T03:49:14;1.53;;;1.30;;
69906;SDS011;57190;47.918;8.112;2024-02-21T03:51:39;3.30;;;1.47;;
69906;SDS011;57190;47.918;8.112;2024-02-21T03:54:05;2.53;;;1.10;;
69906;SDS011;57190;47.918;8.112;2024-02-21T03:56:30;2.33;;;1.23;;
69906;SDS011;57190;47.918;8.112;2024-02-21T03:58:55;3.50;;;1.43;;
69906;SDS011;57190;47.918;8.112;2024-02-21T04:01:21;4.00;;;1.80;;
69906;SDS011;57190;47.918;8.112;2024-02-21T04:03:47;2.03;;;1.73;;
69906;SDS011;57190;47.918;8.112;2024-02-21T04:06:12;3.43;;;1.47;;
69906;SDS011;57190;47.918;8.112;2024-02-21T04:08:38;2.40;;;1.40;;
69906;SDS011;57190;47.918;8.112;2024-02-21T04:11:04;2.10;;;1.67;;
69906;SDS011;57190;47.918;8.112;2024-02-21T04:13:29;3.40;;;1.40;;
69906;SDS011;57190;47.918;8.112;2024-02-21T04:15:55;2.90;;;1.50;;
69906;SDS011;57190;47.918;8.112;2024-02-21T04:18:20;1.50;;;1.40;;
69906;SDS011;57190;47.918;8.112;2024-02-21T04:20:46;1.70;;;1.40;;
69906;SDS011;57190;47.918;8.112;2024-02-21T04:23:12;2.63;;;1.50;;
69906;SDS011;57190;47.918;8.112;2024-02-21T04:25:37;4.13;;;1.70;;
69906;SDS011;57190;47.918;8.112;2024-02-21T04:28:03;3.60;;;1.57;;
69906;SDS011;57190;47.918;8.112;2024-02-21T04:30:29;1.43;;;1.30;;
69906;SDS011;57190;47.918;8.112;2024-02-21T04:32:54;2.17;;;1.50;;
69906;SDS011;57190;47.918;8.112;2024-02-21T04:35:20;2.43;;;1.43;;
69906;SDS011;57190;47.918;8.112;2024-02-21T04:37:46;3.57;;;1.70;;
69906;SDS011;57190;47.918;8.112;2024-02-21T04:40:11;4.40;;;1.63;;
69906;SDS011;57190;47.918;8.112;2024-02-21T04:42:39;1.93;;;1.20;;
69906;SDS011;57190;47.918;8.112;2024-02-21T04:45:04;4.00;;;1.33;;
69906;SDS011;57190;47.918;8.112;2024-02-21T04:47:31;2.07;;;1.20;;
69906;SDS011;57190;47.918;8.112;2024-02-21T04:49:56;3.33;;;1.23;;
69906;SDS011;57190;47.918;8.112;2024-02-21T04:52:22;1.70;;;1.27;;
69906;SDS011;57190;47.918;8.112;2024-02-21T04:54:48;2.17;;;1.13;;
69906;SDS011;57190;47.918;8.112;2024-02-21T04:57:13;1.37;;;1.27;;
69906;SDS011;57190;47.918;8.112;2024-02-21T04:59:46;2.73;;;1.23;;
69906;SDS011;57190;47.918;8.112;2024-02-21T05:02:14;3.90;;;1.60;;
69906;SDS011;57190;47.918;8.112;2024-02-21T05:04:40;3.50;;;1.50;;
69906;SDS011;57190;47.918;8.112;2024-02-21T05:07:07;3.03;;;1.23;;
69906;SDS011;57190;47.918;8.112;2024-02-21T05:09:33;3.60;;;1.30;;
69906;SDS011;57190;47.918;8.112;2024-02-21T05:11:58;2.77;;;1.27;;
69906;SDS011;57190;47.918;8.112;2024-02-21T05:14:24;1.90;;;1.40;;
69906;SDS011;57190;47.918;8.112;2024-02-21T05:16:52;3.53;;;1.47;;
69906;SDS011;57190;47.918;8.112;2024-02-21T05:19:17;2.20;;;1.10;;
69906;SDS011;57190;47.918;8.112;2024-02-21T05:21:43;1.90;;;1.20;;
69906;SDS011;57190;47.918;8.112;2024-02-21T05:24:08;3.73;;;1.30;;
69906;SDS011;57190;47.918;8.112;2024-02-21T05:26:34;3.23;;;1.37;;
69906;SDS011;57190;47.918;8.112;2024-02-21T05:28:59;3.73;;;1.37;;
69906;SDS011;57190;47.918;8.112;2024-02-21T05:31:25;2.30;;;1.50;;
69906;SDS011;57190;47.918;8.112;2024-02-21T05:33:50;1.83;;;1.40;;
69906;SDS011;57190;47.918;8.112;2024-02-21T05:36:16;2.03;;;1.47;;
69906;SDS011;57190;47.918;8.112;2024-02-21T05:38:41;2.97;;;1.50;;
69906;SDS011;57190;47.918;8.112;2024-02-21T05:41:07;1.93;;;1.27;;
69906;SDS011;57190;47.918;8.112;2024-02-21T05:43:32;3.53;;;1.77;;
69906;SDS011;57190;47.918;8.112;2024-02-21T05:45:58;3.43;;;1.43;;
69906;SDS011;57190;47.918;8.112;2024-02-21T05:48:24;3.40;;;1.57;;
69906;SDS011;57190;47.918;8.112;2024-02-21T05:50:50;4.67;;;1.50;;
69906;SDS011;57190;47.918;8.112;2024-02-21T05:53:15;3.30;;;1.10;;
69906;SDS011;57190;47.918;8.112;2024-02-21T05:55:41;1.57;;;1.07;;
69906;SDS011;57190;47.918;8.112;2024-02-21T05:58:07;4.40;;;1.50;;
69906;SDS011;57190;47.918;8.112;2024-02-21T06:00:36;2.40;;;1.33;;
69906;SDS011;57190;47.918;8.112;2024-02-21T06:03:02;3.53;;;1.40;;
69906;SDS011;57190;47.918;8.112;2024-02-21T06:05:28;2.53;;;1.30;;
69906;SDS011;57190;47.918;8.112;2024-02-21T06:07:53;2.17;;;1.20;;
69906;SDS011;57190;47.918;8.112;2024-02-21T06:10:19;2.67;;;1.37;;
69906;SDS011;57190;47.918;8.112;2024-02-21T06:12:44;3.37;;;1.73;;
69906;SDS011;57190;47.918;8.112;2024-02-21T06:15:09;3.17;;;1.33;;
69906;SDS011;57190;47.918;8.112;2024-02-21T06:17:35;3.77;;;1.43;;
69906;SDS011;57190;47.918;8.112;2024-02-21T06:20:00;5.33;;;1.83;;
69906;SDS011;57190;47.918;8.112;2024-02-21T06:22:26;4.10;;;2.47;;
69906;SDS011;57190;47.918;8.112;2024-02-21T06:24:51;11.87;;;8.17;;
69906;SDS011;57190;47.918;8.112;2024-02-21T06:27:19;8.07;;;6.00;;
69906;SDS011;57190;47.918;8.112;2024-02-21T06:29:44;4.17;;;3.40;;
69906;SDS011;57190;47.918;8.112;2024-02-21T06:32:10;3.90;;;3.50;;
69906;SDS011;57190;47.918;8.112;2024-02-21T06:34:35;2.80;;;2.00;;
69906;SDS011;57190;47.918;8.112;2024-02-21T06:37:00;2.70;;;1.80;;
69906;SDS011;57190;47.918;8.112;2024-02-21T06:39:26;2.53;;;1.70;;
69906;SDS011;57190;47.918;8.112;2024-02-21T06:41:53;1.50;;;1.37;;
69906;SDS011;57190;47.918;8.112;2024-02-21T06:44:19;3.70;;;1.93;;
69906;SDS011;57190;47.918;8.112;2024-02-21T06:46:46;5.47;;;1.33;;
69906;SDS011;57190;47.918;8.112;2024-02-21T06:49:12;2.80;;;1.50;;
69906;SDS011;57190;47.918;8.112;2024-02-21T06:51:41;5.43;;;1.90;;
69906;SDS011;57190;47.918;8.112;2024-02-21T06:54:08;3.63;;;1.40;;
69906;SDS011;57190;47.918;8.112;2024-02-21T06:56:34;2.17;;;1.40;;
69906;SDS011;57190;47.918;8.112;2024-02-21T06:59:01;2.60;;;1.20;;
69906;SDS011;57190;47.918;8.112;2024-02-21T07:01:28;2.57;;;1.53;;
69906;SDS011;57190;47.918;8.112;2024-02-21T07:03:54;2.77;;;1.47;;
69906;SDS011;57190;47.918;8.112;2024-02-21T07:06:19;2.90;;;1.40;;
69906;SDS011;57190;47.918;8.112;2024-02-21T07:08:45;4.03;;;1.80;;
69906;SDS011;57190;47.918;8.112;2024-02-21T07:11:10;4.10;;;1.73;;
69906;SDS011;57190;47.918;8.112;2024-02-21T07:13:36;3.40;;;1.70;;
69906;SDS011;57190;47.918;8.112;2024-02-21T07:16:01;2.87;;;1.30;;
69906;SDS011;57190;47.918;8.112;2024-02-21T07:18:28;2.03;;;1.43;;
69906;SDS011;57190;47.918;8.112;2024-02-21T07:20:53;2.07;;;1.40;;
69906;SDS011;57190;47.918;8.112;2024-02-21T07:23:19;1.30;;;1.20;;
69906;SDS011;57190;47.918;8.112;2024-02-21T07:25:44;2.53;;;1.10;;
69906;SDS011;57190;47.918;8.112;2024-02-21T07:28:10;1.80;;;1.50;;
69906;SDS011;57190;47.918;8.112;2024-02-21T07:30:35;2.60;;;1.73;;
69906;SDS011;57190;47.918;8.112;2024-02-21T07:33:01;2.87;;;1.57;;
69906;SDS011;57190;47.918;8.112;2024-02-21T07:35:27;3.00;;;2.00;;
69906;SDS011;57190;47.918;8.112;2024-02-21T07:37:52;1.53;;;1.37;;
69906;SDS011;57190;47.918;8.112;2024-02-21T07:40:18;1.73;;;1.40;;
69906;SDS011;57190;47.918;8.112;2024-02-21T07:42:43;2.60;;;1.70;;
69906;SDS011;57190;47.918;8.112;2024-02-21T07:45:09;3.27;;;1.60;;
69906;SDS011;57190;47.918;8.112;2024-02-21T07:47:35;1.47;;;1.20;;
69906;SDS011;57190;47.918;8.112;2024-02-21T07:50:04;1.40;;;1.20;;
69906;SDS011;57190;47.918;8.112;2024-02-21T07:52:30;2.57;;;1.10;;
69906;SDS011;57190;47.918;8.112;2024-02-21T07:54:56;2.70;;;1.10;;
69906;SDS011;57190;47.918;8.112;2024-02-21T07:57:21;1.30;;;1.20;;
69906;SDS011;57190;47.918;8.112;2024-02-21T07:59:47;2.07;;;1.30;;
69906;SDS011;57190;47.918;8.112;2024-02-21T08:02:13;1.57;;;0.93;;
69906;SDS011;57190;47.918;8.112;2024-02-21T08:04:39;2.33;;;1.70;;
69906;SDS011;57190;47.918;8.112;2024-02-21T08:07:04;1.33;;;0.80;;
69906;SDS011;57190;47.918;8.112;2024-02-21T08:09:30;1.43;;;0.93;;
69906;SDS011;57190;47.918;8.112;2024-02-21T08:11:56;1.07;;;0.90;;
69906;SDS011;57190;47.918;8.112;2024-02-21T08:14:21;1.27;;;0.90;;
69906;SDS011;57190;47.918;8.112;2024-02-21T08:16:47;1.93;;;0.93;;
69906;SDS011;57190;47.918;8.112;2024-02-21T08:19:13;2.60;;;1.90;;
69906;SDS011;57190;47.918;8.112;2024-02-21T08:21:38;2.47;;;2.00;;
69906;SDS011;57190;47.918;8.112;2024-02-21T08:24:04;1.80;;;0.97;;
69906;SDS011;57190;47.918;8.112;2024-02-21T08:26:30;2.17;;;1.37;;
69906;SDS011;57190;47.918;8.112;2024-02-21T08:28:56;1.97;;;1.40;;
69906;SDS011;57190;47.918;8.112;2024-02-21T08:31:26;2.00;;;1.07;;
69906;SDS011;57190;47.918;8.112;2024-02-21T08:34:01;1.43;;;1.07;;
69906;SDS011;57190;47.918;8.112;2024-02-21T08:36:30;1.17;;;1.08;;
69906;SDS011;57190;47.918;8.112;2024-02-21T08:38:56;1.05;;;0.90;;
69906;SDS011;57190;47.918;8.112;2024-02-21T08:41:22;2.15;;;1.75;;
69906;SDS011;57190;47.918;8.112;2024-02-21T08:43:49;4.70;;;2.50;;
69906;SDS011;57190;47.918;8.112;2024-02-21T08:46:19;2.15;;;1.52;;
69906;SDS011;57190;47.918;8.112;2024-02-21T08:48:45;1.67;;;1.52;;
69906;SDS011;57190;47.918;8.112;2024-02-21T08:51:11;1.48;;;1.10;;
69906;SDS011;57190;47.918;8.112;2024-02-21T08:53:37;1.33;;;1.10;;
69906;SDS011;57190;47.918;8.112;2024-02-21T08:56:03;1.45;;;0.98;;
69906;SDS011;57190;47.918;8.112;2024-02-21T08:58:29;1.27;;;1.10;;
69906;SDS011;57190;47.918;8.112;2024-02-21T09:00:54;1.42;;;0.95;;
69906;SDS011;57190;47.918;8.112;2024-02-21T09:03:20;1.25;;;0.90;;
69906;SDS011;57190;47.918;8.112;2024-02-21T09:05:45;2.25;;;1.10;;
69906;SDS011;57190;47.918;8.112;2024-02-21T09:08:12;1.77;;;1.23;;
69906;SDS011;57190;47.918;8.112;2024-02-21T09:10:39;1.33;;;1.23;;
69906;SDS011;57190;47.918;8.112;2024-02-21T09:13:04;1.58;;;0.95;;
69906;SDS011;57190;47.918;8.112;2024-02-21T09:15:31;1.25;;;1.17;;
69906;SDS011;57190;47.918;8.112;2024-02-21T09:17:57;1.58;;;1.20;;
69906;SDS011;57190;47.918;8.112;2024-02-21T09:20:22;1.13;;;1.10;;
69906;SDS011;57190;47.918;8.112;2024-02-21T09:22:48;1.30;;;1.20;;
69906;SDS011;57190;47.918;8.112;2024-02-21T09:25:13;1.10;;;0.98;;
69906;SDS011;57190;47.918;8.112;2024-02-21T09:27:39;1.75;;;1.20;;
69906;SDS011;57190;47.918;8.112;2024-02-21T09:30:05;1.02;;;1.00;;
69906;SDS011;57190;47.918;8.112;2024-02-21T09:32:31;1.70;;;0.80;;
69906;SDS011;57190;47.918;8.112;2024-02-21T09:35:00;0.85;;;0.85;;
69906;SDS011;57190;47.918;8.112;2024-02-21T09:37:25;0.88;;;0.80;;
69906;SDS011;57190;47.918;8.112;2024-02-21T09:39:51;2.05;;;1.30;;
69906;SDS011;57190;47.918;8.112;2024-02-21T09:42:19;1.35;;;1.02;;
69906;SDS011;57190;47.918;8.112;2024-02-21T09:44:46;1.40;;;1.30;;
69906;SDS011;57190;47.918;8.112;2024-02-21T09:47:19;1.17;;;1.08;;
69906;SDS011;57190;47.918;8.112;2024-02-21T09:49:47;1.17;;;0.95;;
69906;SDS011;57190;47.918;8.112;2024-02-21T09:52:13;0.70;;;0.70;;
69906;SDS011;57190;47.918;8.112;2024-02-21T09:54:40;0.75;;;0.75;;
69906;SDS011;57190;47.918;8.112;2024-02-21T09:57:10;0.70;;;0.70;;
69906;SDS011;57190;47.918;8.112;2024-02-21T09:59:36;1.05;;;0.98;;
69906;SDS011;57190;47.918;8.112;2024-02-21T10:02:02;1.02;;;0.98;;
69906;SDS011;57190;47.918;8.112;2024-02-21T10:04:30;1.48;;;1.05;;
69906;SDS011;57190;47.918;8.112;2024-02-21T10:06:57;1.63;;;0.90;;
69906;SDS011;57190;47.918;8.112;2024-02-21T10:09:23;0.75;;;0.75;;
69906;SDS011;57190;47.918;8.112;2024-02-21T10:11:52;0.73;;;0.73;;
69906;SDS011;57190;47.918;8.112;2024-02-21T10:14:18;0.80;;;0.80;;
69906;SDS011;57190;47.918;8.112;2024-02-21T10:16:45;1.45;;;0.90;;
69906;SDS011;57190;47.918;8.112;2024-02-21T10:19:21;0.98;;;0.90;;
69906;SDS011;57190;47.918;8.112;2024-02-21T10:24:32;1.10;;;1.00;;
69906;SDS011;57190;47.918;8.112;2024-02-21T10:26:59;1.00;;;1.00;;
69906;SDS011;57190;47.918;8.112;2024-02-21T10:29:28;1.15;;;0.95;;
69906;SDS011;57190;47.918;8.112;2024-02-21T10:32:03;1.10;;;1.00;;
69906;SDS011;57190;47.918;8.112;2024-02-21T10:34:32;1.17;;;0.90;;
69906;SDS011;57190;47.918;8.112;2024-02-21T10:37:04;0.73;;;0.73;;
69906;SDS011;57190;47.918;8.112;2024-02-21T10:39:31;0.75;;;0.75;;
69906;SDS011;57190;47.918;8.112;2024-02-21T10:41:59;0.70;;;0.70;;
69906;SDS011;57190;47.918;8.112;2024-02-21T10:44:29;0.90;;;0.90;;
69906;SDS011;57190;47.918;8.112;2024-02-21T10:46:56;0.70;;;0.70;;
69906;SDS011;57190;47.918;8.112;2024-02-21T10:49:25;1.58;;;1.13;;
69906;SDS011;57190;47.918;8.112;2024-02-21T10:52:02;1.33;;;0.70;;
69906;SDS011;57190;47.918;8.112;2024-02-21T10:57:00;0.70;;;0.70;;
69906;SDS011;57190;47.918;8.112;2024-02-21T10:59:28;0.85;;;0.85;;
69906;SDS011;57190;47.918;8.112;2024-02-21T11:01:55;0.85;;;0.85;;
69906;SDS011;57190;47.918;8.112;2024-02-21T11:04:20;1.17;;;1.00;;
69906;SDS011;57190;47.918;8.112;2024-02-21T11:06:46;0.88;;;0.80;;
69906;SDS011;57190;47.918;8.112;2024-02-21T11:09:13;0.70;;;0.70;;
69906;SDS011;57190;47.918;8.112;2024-02-21T11:11:39;0.65;;;0.65;;
69906;SDS011;57190;47.918;8.112;2024-02-21T11:16:36;0.80;;;0.80;;
69906;SDS011;57190;47.918;8.112;2024-02-21T11:19:04;0.60;;;0.60;;
69906;SDS011;57190;47.918;8.112;2024-02-21T11:21:34;0.80;;;0.80;;
69906;SDS011;57190;47.918;8.112;2024-02-21T11:24:04;0.80;;;0.80;;
69906;SDS011;57190;47.918;8.112;2024-02-21T11:26:30;0.68;;;0.68;;
69906;SDS011;57190;47.918;8.112;2024-02-21T11:29:00;0.80;;;0.80;;
69906;SDS011;57190;47.918;8.112;2024-02-21T11:31:27;1.08;;;1.00;;
69906;SDS011;57190;47.918;8.112;2024-02-21T11:34:10;1.02;;;0.93;;
69906;SDS011;57190;47.918;8.112;2024-02-21T11:39:18;0.70;;;0.70;;
69906;SDS011;57190;47.918;8.112;2024-02-21T11:44:31;0.70;;;0.70;;
69906;SDS011;57190;47.918;8.112;2024-02-21T11:46:57;0.70;;;0.70;;
69906;SDS011;57190;47.918;8.112;2024-02-21T11:49:29;1.30;;;1.00;;
69906;SDS011;57190;47.918;8.112;2024-02-21T11:52:02;1.20;;;1.00;;
69906;SDS011;57190;47.918;8.112;2024-02-21T11:54:31;2.00;;;1.70;;
69906;SDS011;57190;47.918;8.112;2024-02-21T11:56:56;1.25;;;1.15;;
69906;SDS011;57190;47.918;8.112;2024-02-21T11:59:22;0.60;;;0.60;;
69906;SDS011;57190;47.918;8.112;2024-02-21T12:01:48;0.90;;;0.90;;
69906;SDS011;57190;47.918;8.112;2024-02-21T12:04:14;0.80;;;0.80;;
69906;SDS011;57190;47.918;8.112;2024-02-21T12:06:42;0.68;;;0.68;;
69906;SDS011;57190;47.918;8.112;2024-02-21T12:09:09;0.57;;;0.57;;
69906;SDS011;57190;47.918;8.112;2024-02-21T12:11:35;0.68;;;0.68;;
69906;SDS011;57190;47.918;8.112;2024-02-21T12:16:28;0.68;;;0.68;;
69906;SDS011;57190;47.918;8.112;2024-02-21T12:18:55;0.95;;;0.90;;
69906;SDS011;57190;47.918;8.112;2024-02-21T12:21:31;0.70;;;0.70;;
69906;SDS011;57190;47.918;8.112;2024-02-21T12:24:14;0.70;;;0.70;;
69906;SDS011;57190;47.918;8.112;2024-02-21T12:26:40;0.60;;;0.60;;
69906;SDS011;57190;47.918;8.112;2024-02-21T12:29:06;0.70;;;0.70;;
69906;SDS011;57190;47.918;8.112;2024-02-21T12:31:38;0.60;;;0.60;;
69906;SDS011;57190;47.918;8.112;2024-02-21T12:34:04;0.80;;;0.80;;
69906;SDS011;57190;47.918;8.112;2024-02-21T12:36:33;0.80;;;0.80;;
69906;SDS011;57190;47.918;8.112;2024-02-21T12:39:00;0.90;;;0.90;;
69906;SDS011;57190;47.918;8.112;2024-02-21T12:41:29;0.70;;;0.70;;
69906;SDS011;57190;47.918;8.112;2024-02-21T12:43:57;0.68;;;0.60;;
69906;SDS011;57190;47.918;8.112;2024-02-21T12:46:22;0.70;;;0.70;;
69906;SDS011;57190;47.918;8.112;2024-02-21T12:48:48;0.93;;;0.80;;
69906;SDS011;57190;47.918;8.112;2024-02-21T12:51:14;0.90;;;0.90;;
69906;SDS011;57190;47.918;8.112;2024-02-21T12:53:40;0.73;;;0.73;;
69906;SDS011;57190;47.918;8.112;2024-02-21T12:56:06;1.83;;;0.90;;
69906;SDS011;57190;47.918;8.112;2024-02-21T12:58:32;2.35;;;0.70;;
69906;SDS011;57190;47.918;8.112;2024-02-21T13:00:58;0.60;;;0.60;;
69906;SDS011;57190;47.918;8.112;2024-02-21T13:03:24;0.90;;;0.60;;
69906;SDS011;57190;47.918;8.112;2024-02-21T13:05:49;0.73;;;0.73;;
69906;SDS011;57190;47.918;8.112;2024-02-21T13:08:15;0.60;;;0.60;;
69906;SDS011;57190;47.918;8.112;2024-02-21T13:10:40;0.50;;;0.50;;
69906;SDS011;57190;47.918;8.112;2024-02-21T13:13:05;0.50;;;0.50;;
69906;SDS011;57190;47.918;8.112;2024-02-21T13:15:31;0.63;;;0.63;;
69906;SDS011;57190;47.918;8.112;2024-02-21T13:17:57;0.60;;;0.60;;
69906;SDS011;57190;47.918;8.112;2024-02-21T13:20:23;0.63;;;0.63;;
69906;SDS011;57190;47.918;8.112;2024-02-21T13:22:50;0.82;;;0.70;;
69906;SDS011;57190;47.918;8.112;2024-02-21T13:25:16;0.60;;;0.60;;
69906;SDS011;57190;47.918;8.112;2024-02-21T13:27:44;0.70;;;0.70;;
69906;SDS011;57190;47.918;8.112;2024-02-21T13:30:10;0.60;;;0.60;;
69906;SDS011;57190;47.918;8.112;2024-02-21T13:32:36;1.38;;;0.60;;
69906;SDS011;57190;47.918;8.112;2024-02-21T13:35:02;0.82;;;0.60;;
69906;SDS011;57190;47.918;8.112;2024-02-21T13:37:28;0.77;;;0.70;;
69906;SDS011;57190;47.918;8.112;2024-02-21T13:39:53;0.70;;;0.70;;
69906;SDS011;57190;47.918;8.112;2024-02-21T13:42:19;0.70;;;0.70;;
69906;SDS011;57190;47.918;8.112;2024-02-21T13:44:45;1.65;;;0.77;;
69906;SDS011;57190;47.918;8.112;2024-02-21T13:47:14;0.80;;;0.80;;
69906;SDS011;57190;47.918;8.112;2024-02-21T13:49:40;0.70;;;0.70;;
69906;SDS011;57190;47.918;8.112;2024-02-21T13:52:06;0.60;;;0.60;;
69906;SDS011;57190;47.918;8.112;2024-02-21T13:54:32;0.70;;;0.70;;
69906;SDS011;57190;47.918;8.112;2024-02-21T13:56:57;1.13;;;0.80;;
69906;SDS011;57190;47.918;8.112;2024-02-21T13:59:23;0.80;;;0.80;;
69906;SDS011;57190;47.918;8.112;2024-02-21T14:01:48;0.88;;;0.70;;
69906;SDS011;57190;47.918;8.112;2024-02-21T14:04:14;0.85;;;0.85;;
69906;SDS011;57190;47.918;8.112;2024-02-21T14:06:39;0.82;;;0.75;;
69906;SDS011;57190;47.918;8.112;2024-02-21T14:09:11;1.05;;;0.80;;
69906;SDS011;57190;47.918;8.112;2024-02-21T14:11:37;0.80;;;0.80;;
69906;SDS011;57190;47.918;8.112;2024-02-21T14:14:06;1.23;;;1.13;;
69906;SDS011;57190;47.918;8.112;2024-02-21T14:16:32;1.08;;;1.08;;
69906;SDS011;57190;47.918;8.112;2024-02-21T14:18:57;0.80;;;0.80;;
69906;SDS011;57190;47.918;8.112;2024-02-21T14:21:23;0.80;;;0.80;;
69906;SDS011;57190;47.918;8.112;2024-02-21T14:23:49;0.73;;;0.73;;
69906;SDS011;57190;47.918;8.112;2024-02-21T14:26:15;1.55;;;0.98;;
69906;SDS011;57190;47.918;8.112;2024-02-21T14:28:40;0.70;;;0.70;;
69906;SDS011;57190;47.918;8.112;2024-02-21T14:31:06;0.77;;;0.77;;
69906;SDS011;57190;47.918;8.112;2024-02-21T14:33:37;0.93;;;0.80;;
69906;SDS011;57190;47.918;8.112;2024-02-21T14:36:03;0.80;;;0.73;;
69906;SDS011;57190;47.918;8.112;2024-02-21T14:38:29;0.90;;;0.90;;
69906;SDS011;57190;47.918;8.112;2024-02-21T14:40:54;0.70;;;0.70;;
69906;SDS011;57190;47.918;8.112;2024-02-21T14:43:20;0.70;;;0.70;;
69906;SDS011;57190;47.918;8.112;2024-02-21T14:45:48;0.80;;;0.80;;
69906;SDS011;57190;47.918;8.112;2024-02-21T14:48:14;1.13;;;1.02;;
69906;SDS011;57190;47.918;8.112;2024-02-21T14:50:40;0.60;;;0.60;;
69906;SDS011;57190;47.918;8.112;2024-02-21T14:53:06;0.70;;;0.70;;
69906;SDS011;57190;47.918;8.112;2024-02-21T14:55:33;0.80;;;0.80;;
69906;SDS011;57190;47.918;8.112;2024-02-21T14:57:58;2.15;;;0.70;;